sensor_id;sensor_type;location;lat;lon;timestamp;P1;durP1;ratioP1;P2;durP2;ratioP2
49015;SDS011;34830;44.064;12.566;2023-02-28T00:00:21;18.63;;;9.30;;
49015;SDS011;34830;44.064;12.566;2023-02-28T00:02:48;15.27;;;9.45;;
49015;SDS011;34830;44.064;12.566;2023-02-28T00:05:15;19.77;;;9.10;;
49015;SDS011;34830;44.064;12.566;2023-02-28T00:07:43;16.08;;;8.63;;
49015;SDS011;34830;44.064;12.566;2023-02-28T00:10:10;15.52;;;8.68;;
49015;SDS011;34830;44.064;12.566;2023-02-28T00:12:38;16.83;;;9.55;;
49015;SDS011;34830;44.064;12.566;2023-02-28T00:15:05;15.65;;;9.07;;
49015;SDS011;34830;44.064;12.566;2023-02-28T00:17:32;19.35;;;9.25;;
49015;SDS011;34830;44.064;12.566;2023-02-28T00:19:58;15.05;;;9.00;;
49015;SDS011;34830;44.064;12.566;2023-02-28T00:22:37;14.95;;;8.95;;
49015;SDS011;34830;44.064;12.566;2023-02-28T00:25:05;19.65;;;9.73;;
49015;SDS011;34830;44.064;12.566;2023-02-28T00:27:35;17.45;;;9.15;;
49015;SDS011;34830;44.064;12.566;2023-02-28T00:30:04;20.98;;;10.23;;
49015;SDS011;34830;44.064;12.566;2023-02-28T00:32:31;18.58;;;10.27;;
49015;SDS011;34830;44.064;12.566;2023-02-28T00:34:57;18.80;;;9.30;;
49015;SDS011;34830;44.064;12.566;2023-02-28T00:37:23;15.80;;;9.85;;
49015;SDS011;34830;44.064;12.566;2023-02-28T00:39:49;17.27;;;10.25;;
49015;SDS011;34830;44.064;12.566;2023-02-28T00:42:15;21.58;;;10.18;;
49015;SDS011;34830;44.064;12.566;2023-02-28T00:44:42;18.88;;;9.95;;
49015;SDS011;34830;44.064;12.566;2023-02-28T00:47:08;17.75;;;9.68;;
49015;SDS011;34830;44.064;12.566;2023-02-28T00:49:34;17.42;;;9.98;;
49015;SDS011;34830;44.064;12.566;2023-02-28T00:52:01;15.73;;;9.57;;
49015;SDS011;34830;44.064;12.566;2023-02-28T00:54:28;19.60;;;10.68;;
49015;SDS011;34830;44.064;12.566;2023-02-28T00:56:54;14.98;;;9.52;;
49015;SDS011;34830;44.064;12.566;2023-02-28T00:59:20;17.85;;;10.65;;
49015;SDS011;34830;44.064;12.566;2023-02-28T01:01:47;20.23;;;9.88;;
49015;SDS011;34830;44.064;12.566;2023-02-28T01:04:13;18.02;;;9.40;;
49015;SDS011;34830;44.064;12.566;2023-02-28T01:06:39;17.38;;;9.25;;
49015;SDS011;34830;44.064;12.566;2023-02-28T01:09:09;16.52;;;9.05;;
49015;SDS011;34830;44.064;12.566;2023-02-28T01:11:36;15.98;;;8.80;;
49015;SDS011;34830;44.064;12.566;2023-02-28T01:14:02;14.77;;;9.48;;
49015;SDS011;34830;44.064;12.566;2023-02-28T01:16:30;14.85;;;9.40;;
49015;SDS011;34830;44.064;12.566;2023-02-28T01:18:56;17.77;;;9.27;;
49015;SDS011;34830;44.064;12.566;2023-02-28T01:21:22;18.05;;;9.15;;
49015;SDS011;34830;44.064;12.566;2023-02-28T01:23:49;14.43;;;8.98;;
49015;SDS011;34830;44.064;12.566;2023-02-28T01:26:21;16.15;;;9.18;;
49015;SDS011;34830;44.064;12.566;2023-02-28T01:28:48;15.63;;;9.00;;
49015;SDS011;34830;44.064;12.566;2023-02-28T01:31:16;14.45;;;8.88;;
49015;SDS011;34830;44.064;12.566;2023-02-28T01:33:43;13.48;;;8.20;;
49015;SDS011;34830;44.064;12.566;2023-02-28T01:36:17;14.75;;;9.25;;
49015;SDS011;34830;44.064;12.566;2023-02-28T01:38:44;17.80;;;9.60;;
49015;SDS011;34830;44.064;12.566;2023-02-28T01:41:30;16.48;;;9.23;;
49015;SDS011;34830;44.064;12.566;2023-02-28T01:46:29;14.95;;;8.80;;
49015;SDS011;34830;44.064;12.566;2023-02-28T01:49:05;12.27;;;8.00;;
49015;SDS011;34830;44.064;12.566;2023-02-28T01:51:41;15.75;;;9.10;;
49015;SDS011;34830;44.064;12.566;2023-02-28T01:54:17;17.02;;;10.13;;
49015;SDS011;34830;44.064;12.566;2023-02-28T01:56:47;17.08;;;9.68;;
49015;SDS011;34830;44.064;12.566;2023-02-28T01:59:29;18.05;;;9.43;;
49015;SDS011;34830;44.064;12.566;2023-02-28T02:02:01;15.00;;;8.90;;
49015;SDS011;34830;44.064;12.566;2023-02-28T02:04:31;18.63;;;10.10;;
49015;SDS011;34830;44.064;12.566;2023-02-28T02:06:58;13.40;;;8.63;;
49015;SDS011;34830;44.064;12.566;2023-02-28T02:09:24;16.90;;;9.02;;
49015;SDS011;34830;44.064;12.566;2023-02-28T02:11:52;15.02;;;9.20;;
49015;SDS011;34830;44.064;12.566;2023-02-28T02:17:15;18.25;;;10.43;;
49015;SDS011;34830;44.064;12.566;2023-02-28T02:25:26;21.58;;;11.00;;
49015;SDS011;34830;44.064;12.566;2023-02-28T02:28:05;17.02;;;10.05;;
49015;SDS011;34830;44.064;12.566;2023-02-28T02:36:40;20.25;;;10.07;;
49015;SDS011;34830;44.064;12.566;2023-02-28T02:39:16;18.23;;;10.30;;
49015;SDS011;34830;44.064;12.566;2023-02-28T02:41:52;18.38;;;9.95;;
49015;SDS011;34830;44.064;12.566;2023-02-28T02:44:30;19.10;;;11.30;;
49015;SDS011;34830;44.064;12.566;2023-02-28T02:47:02;21.30;;;10.90;;
49015;SDS011;34830;44.064;12.566;2023-02-28T02:49:35;16.52;;;10.38;;
49015;SDS011;34830;44.064;12.566;2023-02-28T02:52:03;21.85;;;9.80;;
49015;SDS011;34830;44.064;12.566;2023-02-28T02:54:34;18.25;;;10.73;;
49015;SDS011;34830;44.064;12.566;2023-02-28T02:57:12;19.15;;;10.70;;
49015;SDS011;34830;44.064;12.566;2023-02-28T02:59:41;23.73;;;11.07;;
49015;SDS011;34830;44.064;12.566;2023-02-28T03:02:08;17.98;;;11.70;;
49015;SDS011;34830;44.064;12.566;2023-02-28T03:04:42;19.42;;;11.10;;
49015;SDS011;34830;44.064;12.566;2023-02-28T03:07:13;19.30;;;10.88;;
49015;SDS011;34830;44.064;12.566;2023-02-28T03:09:39;21.00;;;11.27;;
49015;SDS011;34830;44.064;12.566;2023-02-28T03:12:06;22.92;;;11.48;;
49015;SDS011;34830;44.064;12.566;2023-02-28T03:18:00;17.52;;;10.20;;
49015;SDS011;34830;44.064;12.566;2023-02-28T03:23:33;18.83;;;11.63;;
49015;SDS011;34830;44.064;12.566;2023-02-28T03:26:06;22.90;;;12.65;;
49015;SDS011;34830;44.064;12.566;2023-02-28T03:29:00;24.33;;;11.50;;
49015;SDS011;34830;44.064;12.566;2023-02-28T03:31:36;21.67;;;11.82;;
49015;SDS011;34830;44.064;12.566;2023-02-28T03:34:12;22.67;;;12.57;;
49015;SDS011;34830;44.064;12.566;2023-02-28T03:36:47;22.70;;;13.48;;
49015;SDS011;34830;44.064;12.566;2023-02-28T03:39:25;26.85;;;13.02;;
49015;SDS011;34830;44.064;12.566;2023-02-28T03:44:25;23.33;;;14.68;;
49015;SDS011;34830;44.064;12.566;2023-02-28T03:47:00;39.83;;;15.00;;
49015;SDS011;34830;44.064;12.566;2023-02-28T03:49:35;23.45;;;12.45;;
49015;SDS011;34830;44.064;12.566;2023-02-28T03:52:05;21.88;;;13.05;;
49015;SDS011;34830;44.064;12.566;2023-02-28T03:54:35;27.17;;;13.82;;
49015;SDS011;34830;44.064;12.566;2023-02-28T03:57:12;32.20;;;15.40;;
49015;SDS011;34830;44.064;12.566;2023-02-28T03:59:44;20.70;;;12.82;;
49015;SDS011;34830;44.064;12.566;2023-02-28T04:02:13;25.73;;;13.80;;
49015;SDS011;34830;44.064;12.566;2023-02-28T04:04:39;25.30;;;13.23;;
49015;SDS011;34830;44.064;12.566;2023-02-28T04:09:36;23.55;;;12.85;;
49015;SDS011;34830;44.064;12.566;2023-02-28T04:12:03;19.35;;;12.25;;
49015;SDS011;34830;44.064;12.566;2023-02-28T04:14:29;22.33;;;12.77;;
49015;SDS011;34830;44.064;12.566;2023-02-28T04:16:55;26.15;;;13.52;;
49015;SDS011;34830;44.064;12.566;2023-02-28T04:19:21;20.98;;;12.68;;
49015;SDS011;34830;44.064;12.566;2023-02-28T04:21:49;19.55;;;11.85;;
49015;SDS011;34830;44.064;12.566;2023-02-28T04:24:24;23.67;;;13.18;;
49015;SDS011;34830;44.064;12.566;2023-02-28T04:26:52;25.67;;;13.57;;
49015;SDS011;34830;44.064;12.566;2023-02-28T04:29:22;24.02;;;12.27;;
49015;SDS011;34830;44.064;12.566;2023-02-28T04:31:58;23.88;;;12.70;;
49015;SDS011;34830;44.064;12.566;2023-02-28T04:34:25;21.38;;;12.63;;
49015;SDS011;34830;44.064;12.566;2023-02-28T04:36:52;24.77;;;13.40;;
49015;SDS011;34830;44.064;12.566;2023-02-28T04:39:20;26.38;;;13.68;;
49015;SDS011;34830;44.064;12.566;2023-02-28T04:41:47;22.52;;;12.52;;
49015;SDS011;34830;44.064;12.566;2023-02-28T04:44:14;29.48;;;13.48;;
49015;SDS011;34830;44.064;12.566;2023-02-28T04:46:40;26.25;;;14.27;;
49015;SDS011;34830;44.064;12.566;2023-02-28T04:49:08;19.75;;;12.18;;
49015;SDS011;34830;44.064;12.566;2023-02-28T04:51:34;24.42;;;13.48;;
49015;SDS011;34830;44.064;12.566;2023-02-28T04:54:00;22.15;;;13.60;;
49015;SDS011;34830;44.064;12.566;2023-02-28T04:56:26;27.60;;;14.45;;
49015;SDS011;34830;44.064;12.566;2023-02-28T04:58:52;29.67;;;13.80;;
49015;SDS011;34830;44.064;12.566;2023-02-28T05:01:20;30.10;;;14.45;;
49015;SDS011;34830;44.064;12.566;2023-02-28T05:03:48;23.40;;;13.35;;
49015;SDS011;34830;44.064;12.566;2023-02-28T05:06:14;24.48;;;14.25;;
49015;SDS011;34830;44.064;12.566;2023-02-28T05:08:40;29.05;;;14.85;;
49015;SDS011;34830;44.064;12.566;2023-02-28T05:11:15;23.05;;;12.27;;
49015;SDS011;34830;44.064;12.566;2023-02-28T05:13:43;26.70;;;13.20;;
49015;SDS011;34830;44.064;12.566;2023-02-28T05:16:10;28.63;;;14.10;;
49015;SDS011;34830;44.064;12.566;2023-02-28T05:18:36;23.80;;;13.75;;
49015;SDS011;34830;44.064;12.566;2023-02-28T05:21:02;24.48;;;13.25;;
49015;SDS011;34830;44.064;12.566;2023-02-28T05:23:28;29.02;;;14.52;;
49015;SDS011;34830;44.064;12.566;2023-02-28T05:25:55;27.02;;;13.60;;
49015;SDS011;34830;44.064;12.566;2023-02-28T05:28:21;24.20;;;13.18;;
49015;SDS011;34830;44.064;12.566;2023-02-28T05:30:47;23.85;;;12.52;;
49015;SDS011;34830;44.064;12.566;2023-02-28T05:33:14;23.75;;;13.02;;
49015;SDS011;34830;44.064;12.566;2023-02-28T05:35:40;23.65;;;13.35;;
49015;SDS011;34830;44.064;12.566;2023-02-28T05:38:08;31.10;;;15.02;;
49015;SDS011;34830;44.064;12.566;2023-02-28T05:40:34;24.48;;;13.15;;
49015;SDS011;34830;44.064;12.566;2023-02-28T05:43:00;24.15;;;13.32;;
49015;SDS011;34830;44.064;12.566;2023-02-28T05:45:26;23.90;;;13.57;;
49015;SDS011;34830;44.064;12.566;2023-02-28T05:47:53;26.33;;;15.52;;
49015;SDS011;34830;44.064;12.566;2023-02-28T05:50:19;26.85;;;12.70;;
49015;SDS011;34830;44.064;12.566;2023-02-28T05:52:49;28.33;;;13.82;;
49015;SDS011;34830;44.064;12.566;2023-02-28T05:55:16;24.83;;;13.25;;
49015;SDS011;34830;44.064;12.566;2023-02-28T05:57:42;26.75;;;13.32;;
49015;SDS011;34830;44.064;12.566;2023-02-28T06:00:08;30.50;;;14.50;;
49015;SDS011;34830;44.064;12.566;2023-02-28T06:02:38;24.90;;;13.48;;
49015;SDS011;34830;44.064;12.566;2023-02-28T06:05:08;25.77;;;12.70;;
49015;SDS011;34830;44.064;12.566;2023-02-28T06:07:39;27.92;;;13.40;;
49015;SDS011;34830;44.064;12.566;2023-02-28T06:10:05;29.00;;;14.40;;
49015;SDS011;34830;44.064;12.566;2023-02-28T06:12:32;26.40;;;14.10;;
49015;SDS011;34830;44.064;12.566;2023-02-28T06:14:58;26.20;;;13.43;;
49015;SDS011;34830;44.064;12.566;2023-02-28T06:17:24;21.55;;;13.80;;
49015;SDS011;34830;44.064;12.566;2023-02-28T06:19:50;23.00;;;13.52;;
49015;SDS011;34830;44.064;12.566;2023-02-28T06:22:16;21.42;;;12.65;;
49015;SDS011;34830;44.064;12.566;2023-02-28T06:24:42;29.63;;;12.88;;
49015;SDS011;34830;44.064;12.566;2023-02-28T06:27:08;26.52;;;13.27;;
49015;SDS011;34830;44.064;12.566;2023-02-28T06:29:34;24.55;;;13.15;;
49015;SDS011;34830;44.064;12.566;2023-02-28T06:32:01;22.10;;;13.52;;
49015;SDS011;34830;44.064;12.566;2023-02-28T06:34:27;27.60;;;13.65;;
49015;SDS011;34830;44.064;12.566;2023-02-28T06:36:53;31.35;;;13.82;;
49015;SDS011;34830;44.064;12.566;2023-02-28T06:39:19;28.65;;;14.63;;
49015;SDS011;34830;44.064;12.566;2023-02-28T06:41:45;25.38;;;13.57;;
49015;SDS011;34830;44.064;12.566;2023-02-28T06:44:16;21.10;;;12.30;;
49015;SDS011;34830;44.064;12.566;2023-02-28T06:46:43;23.55;;;13.13;;
49015;SDS011;34830;44.064;12.566;2023-02-28T06:49:10;24.45;;;13.73;;
49015;SDS011;34830;44.064;12.566;2023-02-28T06:51:38;21.02;;;12.90;;
49015;SDS011;34830;44.064;12.566;2023-02-28T06:54:05;24.42;;;13.68;;
49015;SDS011;34830;44.064;12.566;2023-02-28T06:56:34;27.85;;;12.23;;
49015;SDS011;34830;44.064;12.566;2023-02-28T06:59:01;24.33;;;12.85;;
49015;SDS011;34830;44.064;12.566;2023-02-28T07:01:27;24.15;;;11.68;;
49015;SDS011;34830;44.064;12.566;2023-02-28T07:03:53;22.80;;;13.32;;
49015;SDS011;34830;44.064;12.566;2023-02-28T07:06:23;24.85;;;11.73;;
49015;SDS011;34830;44.064;12.566;2023-02-28T07:08:50;21.48;;;12.13;;
49015;SDS011;34830;44.064;12.566;2023-02-28T07:11:18;21.40;;;12.15;;
49015;SDS011;34830;44.064;12.566;2023-02-28T07:13:48;21.13;;;12.85;;
49015;SDS011;34830;44.064;12.566;2023-02-28T07:16:18;30.48;;;15.15;;
49015;SDS011;34830;44.064;12.566;2023-02-28T07:18:44;44.03;;;14.20;;
49015;SDS011;34830;44.064;12.566;2023-02-28T07:21:10;21.90;;;13.07;;
49015;SDS011;34830;44.064;12.566;2023-02-28T07:23:37;31.00;;;14.18;;
49015;SDS011;34830;44.064;12.566;2023-02-28T07:26:04;30.05;;;16.02;;
49015;SDS011;34830;44.064;12.566;2023-02-28T07:28:33;26.35;;;13.98;;
49015;SDS011;34830;44.064;12.566;2023-02-28T07:31:03;37.72;;;14.43;;
49015;SDS011;34830;44.064;12.566;2023-02-28T07:33:30;25.97;;;14.10;;
49015;SDS011;34830;44.064;12.566;2023-02-28T07:36:00;23.60;;;13.15;;
49015;SDS011;34830;44.064;12.566;2023-02-28T07:38:30;27.58;;;13.15;;
49015;SDS011;34830;44.064;12.566;2023-02-28T07:40:56;22.65;;;11.63;;
49015;SDS011;34830;44.064;12.566;2023-02-28T07:43:22;23.42;;;12.13;;
49015;SDS011;34830;44.064;12.566;2023-02-28T07:45:48;21.42;;;12.52;;
49015;SDS011;34830;44.064;12.566;2023-02-28T07:48:14;23.27;;;11.63;;
49015;SDS011;34830;44.064;12.566;2023-02-28T07:50:40;21.98;;;11.80;;
49015;SDS011;34830;44.064;12.566;2023-02-28T07:53:06;19.58;;;11.25;;
49015;SDS011;34830;44.064;12.566;2023-02-28T07:55:32;19.27;;;11.38;;
49015;SDS011;34830;44.064;12.566;2023-02-28T07:57:59;18.58;;;10.60;;
49015;SDS011;34830;44.064;12.566;2023-02-28T08:00:25;18.15;;;10.63;;
49015;SDS011;34830;44.064;12.566;2023-02-28T08:02:51;20.48;;;11.10;;
49015;SDS011;34830;44.064;12.566;2023-02-28T08:05:17;20.90;;;12.10;;
49015;SDS011;34830;44.064;12.566;2023-02-28T08:07:43;17.85;;;10.27;;
49015;SDS011;34830;44.064;12.566;2023-02-28T08:10:10;17.48;;;10.82;;
49015;SDS011;34830;44.064;12.566;2023-02-28T08:12:36;21.92;;;12.25;;
49015;SDS011;34830;44.064;12.566;2023-02-28T08:15:02;20.48;;;12.30;;
49015;SDS011;34830;44.064;12.566;2023-02-28T08:17:28;25.65;;;10.77;;
49015;SDS011;34830;44.064;12.566;2023-02-28T08:19:54;20.60;;;11.70;;
49015;SDS011;34830;44.064;12.566;2023-02-28T08:22:20;21.98;;;12.02;;
49015;SDS011;34830;44.064;12.566;2023-02-28T08:24:46;18.33;;;9.80;;
49015;SDS011;34830;44.064;12.566;2023-02-28T08:27:13;18.10;;;11.52;;
49015;SDS011;34830;44.064;12.566;2023-02-28T08:29:39;23.13;;;13.30;;
49015;SDS011;34830;44.064;12.566;2023-02-28T08:32:05;16.00;;;9.95;;
49015;SDS011;34830;44.064;12.566;2023-02-28T08:34:32;19.83;;;10.77;;
49015;SDS011;34830;44.064;12.566;2023-02-28T08:36:58;19.38;;;10.80;;
49015;SDS011;34830;44.064;12.566;2023-02-28T08:39:24;18.90;;;10.45;;
49015;SDS011;34830;44.064;12.566;2023-02-28T08:41:50;15.63;;;9.68;;
49015;SDS011;34830;44.064;12.566;2023-02-28T08:44:17;19.85;;;10.07;;
49015;SDS011;34830;44.064;12.566;2023-02-28T08:46:43;17.95;;;11.07;;
49015;SDS011;34830;44.064;12.566;2023-02-28T08:49:09;16.98;;;10.13;;
49015;SDS011;34830;44.064;12.566;2023-02-28T08:51:36;19.90;;;11.65;;
49015;SDS011;34830;44.064;12.566;2023-02-28T08:54:02;17.45;;;10.38;;
49015;SDS011;34830;44.064;12.566;2023-02-28T08:56:28;17.13;;;10.40;;
49015;SDS011;34830;44.064;12.566;2023-02-28T08:58:55;16.35;;;8.88;;
49015;SDS011;34830;44.064;12.566;2023-02-28T09:01:23;16.45;;;10.07;;
49015;SDS011;34830;44.064;12.566;2023-02-28T09:03:52;16.38;;;10.45;;
49015;SDS011;34830;44.064;12.566;2023-02-28T09:06:19;19.45;;;10.93;;
49015;SDS011;34830;44.064;12.566;2023-02-28T09:08:47;15.07;;;9.95;;
49015;SDS011;34830;44.064;12.566;2023-02-28T09:11:13;16.10;;;9.82;;
49015;SDS011;34830;44.064;12.566;2023-02-28T09:13:39;16.67;;;9.65;;
49015;SDS011;34830;44.064;12.566;2023-02-28T09:16:07;14.23;;;8.52;;
49015;SDS011;34830;44.064;12.566;2023-02-28T09:18:36;16.85;;;10.48;;
49015;SDS011;34830;44.064;12.566;2023-02-28T09:21:03;17.35;;;10.07;;
49015;SDS011;34830;44.064;12.566;2023-02-28T09:23:30;19.30;;;10.00;;
49015;SDS011;34830;44.064;12.566;2023-02-28T09:25:56;14.25;;;9.93;;
49015;SDS011;34830;44.064;12.566;2023-02-28T09:28:22;19.90;;;10.35;;
49015;SDS011;34830;44.064;12.566;2023-02-28T09:30:50;20.63;;;10.98;;
49015;SDS011;34830;44.064;12.566;2023-02-28T09:33:17;16.92;;;9.98;;
49015;SDS011;34830;44.064;12.566;2023-02-28T09:35:47;17.30;;;10.27;;
49015;SDS011;34830;44.064;12.566;2023-02-28T09:38:13;17.55;;;10.00;;
49015;SDS011;34830;44.064;12.566;2023-02-28T09:43:12;17.23;;;10.60;;
49015;SDS011;34830;44.064;12.566;2023-02-28T09:45:41;22.88;;;10.23;;
49015;SDS011;34830;44.064;12.566;2023-02-28T09:48:12;15.52;;;9.95;;
49015;SDS011;34830;44.064;12.566;2023-02-28T09:50:43;16.30;;;10.32;;
49015;SDS011;34830;44.064;12.566;2023-02-28T09:53:21;20.90;;;10.30;;
49015;SDS011;34830;44.064;12.566;2023-02-28T09:58:59;16.75;;;9.52;;
49015;SDS011;34830;44.064;12.566;2023-02-28T10:02:02;22.67;;;10.80;;
49015;SDS011;34830;44.064;12.566;2023-02-28T10:07:51;20.38;;;11.27;;
49015;SDS011;34830;44.064;12.566;2023-02-28T10:12:54;24.95;;;10.77;;
49015;SDS011;34830;44.064;12.566;2023-02-28T10:15:22;34.17;;;12.45;;
49015;SDS011;34830;44.064;12.566;2023-02-28T10:17:51;17.25;;;10.60;;
49015;SDS011;34830;44.064;12.566;2023-02-28T10:20:21;19.73;;;11.13;;
49015;SDS011;34830;44.064;12.566;2023-02-28T10:22:52;17.17;;;10.10;;
49015;SDS011;34830;44.064;12.566;2023-02-28T10:25:21;15.30;;;10.15;;
49015;SDS011;34830;44.064;12.566;2023-02-28T10:27:49;20.85;;;10.20;;
49015;SDS011;34830;44.064;12.566;2023-02-28T10:30:19;16.65;;;10.80;;
49015;SDS011;34830;44.064;12.566;2023-02-28T10:32:47;22.25;;;12.30;;
49015;SDS011;34830;44.064;12.566;2023-02-28T10:35:17;21.08;;;12.27;;
49015;SDS011;34830;44.064;12.566;2023-02-28T10:37:50;19.00;;;10.85;;
49015;SDS011;34830;44.064;12.566;2023-02-28T10:42:58;20.15;;;10.70;;
49015;SDS011;34830;44.064;12.566;2023-02-28T10:45:39;26.20;;;11.15;;
49015;SDS011;34830;44.064;12.566;2023-02-28T10:51:00;22.30;;;11.73;;
49015;SDS011;34830;44.064;12.566;2023-02-28T10:53:30;24.20;;;10.75;;
49015;SDS011;34830;44.064;12.566;2023-02-28T10:56:12;14.98;;;9.68;;
49015;SDS011;34830;44.064;12.566;2023-02-28T10:58:46;21.02;;;11.25;;
49015;SDS011;34830;44.064;12.566;2023-02-28T11:01:34;18.00;;;11.27;;
49015;SDS011;34830;44.064;12.566;2023-02-28T11:04:01;22.20;;;10.20;;
49015;SDS011;34830;44.064;12.566;2023-02-28T11:08:58;21.33;;;10.35;;
49015;SDS011;34830;44.064;12.566;2023-02-28T11:11:27;22.60;;;10.73;;
49015;SDS011;34830;44.064;12.566;2023-02-28T11:14:02;20.40;;;11.80;;
49015;SDS011;34830;44.064;12.566;2023-02-28T11:16:32;28.27;;;12.35;;
49015;SDS011;34830;44.064;12.566;2023-02-28T11:18:59;22.73;;;11.18;;
49015;SDS011;34830;44.064;12.566;2023-02-28T11:21:30;24.65;;;11.88;;
49015;SDS011;34830;44.064;12.566;2023-02-28T11:24:12;27.52;;;12.65;;
49015;SDS011;34830;44.064;12.566;2023-02-28T11:26:47;24.10;;;11.52;;
49015;SDS011;34830;44.064;12.566;2023-02-28T11:29:18;26.70;;;11.50;;
49015;SDS011;34830;44.064;12.566;2023-02-28T11:32:07;23.80;;;12.18;;
49015;SDS011;34830;44.064;12.566;2023-02-28T11:34:36;28.20;;;11.60;;
49015;SDS011;34830;44.064;12.566;2023-02-28T11:37:03;18.83;;;12.18;;
49015;SDS011;34830;44.064;12.566;2023-02-28T11:39:32;21.27;;;12.07;;
49015;SDS011;34830;44.064;12.566;2023-02-28T11:56:23;24.88;;;11.75;;
49015;SDS011;34830;44.064;12.566;2023-02-28T11:59:05;24.52;;;11.82;;
49015;SDS011;34830;44.064;12.566;2023-02-28T12:07:35;32.22;;;13.63;;
49015;SDS011;34830;44.064;12.566;2023-02-28T12:10:29;22.45;;;13.98;;
49015;SDS011;34830;44.064;12.566;2023-02-28T12:24:29;23.13;;;14.32;;
49015;SDS011;34830;44.064;12.566;2023-02-28T12:27:16;27.95;;;13.43;;
49015;SDS011;34830;44.064;12.566;2023-02-28T12:32:44;21.40;;;12.90;;
49015;SDS011;34830;44.064;12.566;2023-02-28T12:35:13;27.38;;;13.07;;
49015;SDS011;34830;44.064;12.566;2023-02-28T12:37:54;32.42;;;14.20;;
49015;SDS011;34830;44.064;12.566;2023-02-28T12:40:25;22.27;;;12.70;;
49015;SDS011;34830;44.064;12.566;2023-02-28T12:42:56;20.90;;;12.52;;
49015;SDS011;34830;44.064;12.566;2023-02-28T12:45:26;31.80;;;14.65;;
49015;SDS011;34830;44.064;12.566;2023-02-28T12:47:57;21.55;;;12.25;;
49015;SDS011;34830;44.064;12.566;2023-02-28T12:50:32;29.08;;;13.68;;
49015;SDS011;34830;44.064;12.566;2023-02-28T12:55:49;22.45;;;13.05;;
49015;SDS011;34830;44.064;12.566;2023-02-28T13:06:56;23.08;;;13.73;;
49015;SDS011;34830;44.064;12.566;2023-02-28T13:09:31;25.50;;;13.65;;
49015;SDS011;34830;44.064;12.566;2023-02-28T13:11:58;22.80;;;12.88;;
49015;SDS011;34830;44.064;12.566;2023-02-28T13:14:28;24.50;;;14.35;;
49015;SDS011;34830;44.064;12.566;2023-02-28T13:24:52;20.98;;;13.90;;
49015;SDS011;34830;44.064;12.566;2023-02-28T13:27:32;31.13;;;16.48;;
49015;SDS011;34830;44.064;12.566;2023-02-28T13:30:00;24.80;;;14.20;;
49015;SDS011;34830;44.064;12.566;2023-02-28T13:32:28;25.48;;;14.30;;
49015;SDS011;34830;44.064;12.566;2023-02-28T13:39:52;27.90;;;14.32;;
49015;SDS011;34830;44.064;12.566;2023-02-28T14:06:35;26.17;;;13.85;;
49015;SDS011;34830;44.064;12.566;2023-02-28T14:09:06;25.60;;;13.98;;
49015;SDS011;34830;44.064;12.566;2023-02-28T14:11:43;28.77;;;14.48;;
49015;SDS011;34830;44.064;12.566;2023-02-28T14:14:53;25.23;;;14.10;;
49015;SDS011;34830;44.064;12.566;2023-02-28T14:17:05;25.10;;;14.30;;
49015;SDS011;34830;44.064;12.566;2023-02-28T14:19:35;23.55;;;14.43;;
49015;SDS011;34830;44.064;12.566;2023-02-28T14:25:09;21.58;;;13.60;;
49015;SDS011;34830;44.064;12.566;2023-02-28T14:28:10;25.55;;;15.43;;
49015;SDS011;34830;44.064;12.566;2023-02-28T14:31:13;28.10;;;13.73;;
49015;SDS011;34830;44.064;12.566;2023-02-28T14:33:48;24.30;;;14.15;;
49015;SDS011;34830;44.064;12.566;2023-02-28T14:36:26;23.98;;;14.25;;
49015;SDS011;34830;44.064;12.566;2023-02-28T14:38:55;25.75;;;14.15;;
49015;SDS011;34830;44.064;12.566;2023-02-28T14:41:24;24.20;;;13.45;;
49015;SDS011;34830;44.064;12.566;2023-02-28T14:44:11;24.83;;;13.75;;
49015;SDS011;34830;44.064;12.566;2023-02-28T14:46:55;26.42;;;14.38;;
49015;SDS011;34830;44.064;12.566;2023-02-28T14:49:26;28.27;;;16.30;;
49015;SDS011;34830;44.064;12.566;2023-02-28T14:52:02;28.08;;;14.88;;
49015;SDS011;34830;44.064;12.566;2023-02-28T14:54:51;24.25;;;14.68;;
49015;SDS011;34830;44.064;12.566;2023-02-28T14:57:33;24.20;;;13.57;;
49015;SDS011;34830;44.064;12.566;2023-02-28T15:02:38;26.55;;;14.95;;
49015;SDS011;34830;44.064;12.566;2023-02-28T15:07:43;24.27;;;14.05;;
49015;SDS011;34830;44.064;12.566;2023-02-28T15:12:46;25.80;;;14.25;;
49015;SDS011;34830;44.064;12.566;2023-02-28T15:15:22;23.25;;;14.75;;
49015;SDS011;34830;44.064;12.566;2023-02-28T15:17:54;24.20;;;14.15;;
49015;SDS011;34830;44.064;12.566;2023-02-28T15:20:22;22.90;;;13.75;;
49015;SDS011;34830;44.064;12.566;2023-02-28T15:22:49;29.58;;;16.08;;
49015;SDS011;34830;44.064;12.566;2023-02-28T15:25:18;25.45;;;15.00;;
49015;SDS011;34830;44.064;12.566;2023-02-28T15:27:47;29.08;;;15.30;;
49015;SDS011;34830;44.064;12.566;2023-02-28T15:30:20;26.75;;;14.57;;
49015;SDS011;34830;44.064;12.566;2023-02-28T15:33:07;26.50;;;13.93;;
49015;SDS011;34830;44.064;12.566;2023-02-28T15:35:37;21.77;;;13.10;;
49015;SDS011;34830;44.064;12.566;2023-02-28T15:38:14;26.77;;;14.63;;
49015;SDS011;34830;44.064;12.566;2023-02-28T15:40:53;23.50;;;13.98;;
49015;SDS011;34830;44.064;12.566;2023-02-28T15:46:04;22.52;;;13.20;;
49015;SDS011;34830;44.064;12.566;2023-02-28T15:48:35;31.92;;;15.65;;
49015;SDS011;34830;44.064;12.566;2023-02-28T15:58:59;23.92;;;14.23;;
49015;SDS011;34830;44.064;12.566;2023-02-28T16:01:33;26.25;;;14.40;;
49015;SDS011;34830;44.064;12.566;2023-02-28T16:04:05;25.30;;;15.05;;
49015;SDS011;34830;44.064;12.566;2023-02-28T16:09:17;25.88;;;15.43;;
49015;SDS011;34830;44.064;12.566;2023-02-28T16:11:49;22.45;;;11.95;;
49015;SDS011;34830;44.064;12.566;2023-02-28T16:14:20;17.48;;;11.43;;
49015;SDS011;34830;44.064;12.566;2023-02-28T16:16:54;20.98;;;12.60;;
49015;SDS011;34830;44.064;12.566;2023-02-28T16:19:21;29.13;;;13.40;;
49015;SDS011;34830;44.064;12.566;2023-02-28T16:21:48;18.65;;;9.57;;
49015;SDS011;34830;44.064;12.566;2023-02-28T16:24:14;15.27;;;6.50;;
49015;SDS011;34830;44.064;12.566;2023-02-28T16:26:41;22.80;;;10.48;;
49015;SDS011;34830;44.064;12.566;2023-02-28T16:29:09;23.90;;;13.43;;
49015;SDS011;34830;44.064;12.566;2023-02-28T16:31:38;29.35;;;13.70;;
49015;SDS011;34830;44.064;12.566;2023-02-28T16:34:04;26.90;;;14.55;;
49015;SDS011;34830;44.064;12.566;2023-02-28T16:36:30;27.00;;;16.60;;
49015;SDS011;34830;44.064;12.566;2023-02-28T16:38:57;24.88;;;14.82;;
49015;SDS011;34830;44.064;12.566;2023-02-28T16:41:26;30.95;;;15.90;;
49015;SDS011;34830;44.064;12.566;2023-02-28T16:43:53;27.92;;;15.15;;
49015;SDS011;34830;44.064;12.566;2023-02-28T16:46:24;15.35;;;7.80;;
49015;SDS011;34830;44.064;12.566;2023-02-28T16:48:57;13.52;;;6.72;;
49015;SDS011;34830;44.064;12.566;2023-02-28T16:51:23;16.73;;;6.70;;
49015;SDS011;34830;44.064;12.566;2023-02-28T16:53:49;13.05;;;5.57;;
49015;SDS011;34830;44.064;12.566;2023-02-28T16:56:22;8.55;;;4.97;;
49015;SDS011;34830;44.064;12.566;2023-02-28T16:58:50;9.73;;;5.35;;
49015;SDS011;34830;44.064;12.566;2023-02-28T17:01:17;11.60;;;6.60;;